Overview Statistics Trail Chart Weather Telemetry Raw packets
 

This is the latest recevied weather packets stored in our database for station/object SV9TNF-52. If no packets are shown the sender has not sent any weather packets the latest 10 day(s).

<< 112 113 114 115 116 >>
Time Temp. Humidity Pressure Rain* Wind** Luminosity Snow
1787818293 33.33° C 51% 1020.3 hPa 0 mm 4.47 m/s, 230° - -
1787817987 33.33° C 54% 1020.3 hPa 0 mm 6.71 m/s, 259° - -
1787817688 33.33° C 53% 1020.3 hPa 0 mm 1.79 m/s, 186° - -
1787817387 32.78° C 55% 1020 hPa 0 mm 4.92 m/s, 254° - -
1787817088 32.78° C 56% 1020 hPa 0 mm 4.02 m/s, 235° - -
1787816787 32.22° C 61% 1020 hPa 0 mm 4.92 m/s, 270° - -
1787816487 32.22° C 60% 1020 hPa 0 mm 2.24 m/s, 279° - -
1787816187 31.67° C 62% 1020 hPa 0 mm 4.02 m/s, 277° - -
1787815887 31.67° C 64% 1020 hPa 0 mm 4.92 m/s, 311° - -
1787815587 31.11° C 64% 1020 hPa 0 mm 4.92 m/s, 271° - -
1787815289 30.56° C 66% 1020 hPa 0 mm 4.02 m/s, 353° - -
1787814993 30.56° C 67% 1020 hPa 0 mm 4.92 m/s, 312° - -
1787814686 31.11° C 68% 1020 hPa 0 mm 5.36 m/s, 256° - -
1787814386 31.11° C 68% 1020 hPa 0 mm 6.71 m/s, 153° - -
1787814086 31.11° C 67% 1020 hPa 0 mm 4.92 m/s, 258° - -
1787813786 30.56° C 66% 1020 hPa 0 mm 4.92 m/s, 275° - -
1787813486 31.11° C 67% 1020 hPa 0 mm 2.68 m/s, 274° - -
1787813186 30.56° C 66% 1020 hPa 0 mm 1.79 m/s, 349° - -
1787812886 30.56° C 68% 1020 hPa 0 mm 1.79 m/s, 251° - -
1787812588 30.56° C 71% 1020 hPa 0 mm 1.34 m/s, 0° - -
1787812285 30.56° C 71% 1020 hPa 0 mm 1.79 m/s, 271° - -
1787811985 30° C 72% 1020 hPa 0 mm 2.68 m/s, 241° - -
1787811685 30° C 73% 1020 hPa 0 mm 4.02 m/s, 260° - -
1787811385 30° C 74% 1020 hPa 0 mm 1.79 m/s, 270° - -
1787811085 29.44° C 75% 1019.6 hPa 0 mm 2.68 m/s, 234° - -

* Rain latest hour (hover to see other rain measurements)
** Current wind speed in m/s (hover to see current wind gust speed)